sensor_id;sensor_type;location;lat;lon;timestamp;pressure;altitude;pressure_sealevel;temperature
77412;BMP280;66484;49.968;19.140;2024-01-07T00:01:31;97149.16;;;0.11
77412;BMP280;66484;49.968;19.140;2024-01-07T00:03:32;97157.38;;;-0.02
77412;BMP280;66484;49.968;19.140;2024-01-07T00:05:32;97156.84;;;-0.13
77412;BMP280;66484;49.968;19.140;2024-01-07T00:07:33;97152.72;;;-0.14
77412;BMP280;66484;49.968;19.140;2024-01-07T00:09:33;97168.63;;;-0.18
77412;BMP280;66484;49.968;19.140;2024-01-07T00:11:34;97171.34;;;-0.41
77412;BMP280;66484;49.968;19.140;2024-01-07T00:13:35;97177.53;;;-0.31
77412;BMP280;66484;49.968;19.140;2024-01-07T00:15:36;97161.09;;;-0.19
77412;BMP280;66484;49.968;19.140;2024-01-07T00:17:36;97167.19;;;-0.22
77412;BMP280;66484;49.968;19.140;2024-01-07T00:19:37;97184.50;;;-0.21
77412;BMP280;66484;49.968;19.140;2024-01-07T00:21:38;97177.06;;;-0.26
77412;BMP280;66484;49.968;19.140;2024-01-07T00:23:39;97175.91;;;-0.45
77412;BMP280;66484;49.968;19.140;2024-01-07T00:25:39;97173.97;;;-0.60
77412;BMP280;66484;49.968;19.140;2024-01-07T00:27:40;97170.09;;;-0.36
77412;BMP280;66484;49.968;19.140;2024-01-07T00:29:40;97180.72;;;-0.40
77412;BMP280;66484;49.968;19.140;2024-01-07T00:31:41;97173.69;;;-0.46
77412;BMP280;66484;49.968;19.140;2024-01-07T00:33:41;97179.50;;;-0.35
77412;BMP280;66484;49.968;19.140;2024-01-07T00:35:42;97184.03;;;-0.36
77412;BMP280;66484;49.968;19.140;2024-01-07T00:37:42;97188.41;;;-0.29
77412;BMP280;66484;49.968;19.140;2024-01-07T00:39:43;97194.31;;;-0.41
77412;BMP280;66484;49.968;19.140;2024-01-07T00:41:46;97191.03;;;-0.29
77412;BMP280;66484;49.968;19.140;2024-01-07T00:43:46;97184.06;;;-0.20
77412;BMP280;66484;49.968;19.140;2024-01-07T00:45:47;97184.19;;;-0.07
77412;BMP280;66484;49.968;19.140;2024-01-07T00:47:47;97189.81;;;-0.05
77412;BMP280;66484;49.968;19.140;2024-01-07T00:49:47;97181.75;;;0.01
77412;BMP280;66484;49.968;19.140;2024-01-07T00:51:48;97183.38;;;-0.04
77412;BMP280;66484;49.968;19.140;2024-01-07T00:53:49;97191.44;;;-0.11
77412;BMP280;66484;49.968;19.140;2024-01-07T00:55:49;97191.44;;;-0.11
77412;BMP280;66484;49.968;19.140;2024-01-07T00:57:50;97198.03;;;-0.03
77412;BMP280;66484;49.968;19.140;2024-01-07T00:59:50;97198.25;;;-0.14
77412;BMP280;66484;49.968;19.140;2024-01-07T01:01:51;97206.38;;;-0.24
77412;BMP280;66484;49.968;19.140;2024-01-07T01:03:51;97203.19;;;-0.16
77412;BMP280;66484;49.968;19.140;2024-01-07T01:05:53;97210.06;;;-0.02
77412;BMP280;66484;49.968;19.140;2024-01-07T01:07:53;97209.25;;;0.00
77412;BMP280;66484;49.968;19.140;2024-01-07T01:09:54;97213.44;;;-0.02
77412;BMP280;66484;49.968;19.140;2024-01-07T01:11:54;97209.19;;;-0.15
77412;BMP280;66484;49.968;19.140;2024-01-07T01:13:55;97206.69;;;-0.22
77412;BMP280;66484;49.968;19.140;2024-01-07T01:15:55;97204.75;;;-0.38
77412;BMP280;66484;49.968;19.140;2024-01-07T01:17:56;97206.38;;;-0.24
77412;BMP280;66484;49.968;19.140;2024-01-07T01:19:56;97211.69;;;-0.28
77412;BMP280;66484;49.968;19.140;2024-01-07T01:21:57;97220.09;;;-0.33
77412;BMP280;66484;49.968;19.140;2024-01-07T01:23:57;97212.09;;;-0.29
77412;BMP280;66484;49.968;19.140;2024-01-07T01:25:58;97218.19;;;-0.32
77412;BMP280;66484;49.968;19.140;2024-01-07T01:27:58;97221.81;;;-0.26
77412;BMP280;66484;49.968;19.140;2024-01-07T01:29:59;97221.50;;;-0.28
77412;BMP280;66484;49.968;19.140;2024-01-07T01:31:59;97219.69;;;-0.73
77412;BMP280;66484;49.968;19.140;2024-01-07T01:34:00;97217.72;;;-0.66
77412;BMP280;66484;49.968;19.140;2024-01-07T01:36:04;97216.97;;;-0.47
77412;BMP280;66484;49.968;19.140;2024-01-07T01:38:05;97214.59;;;-0.61
77412;BMP280;66484;49.968;19.140;2024-01-07T01:40:06;97215.72;;;-0.62
77412;BMP280;66484;49.968;19.140;2024-01-07T01:42:07;97218.44;;;-0.65
77412;BMP280;66484;49.968;19.140;2024-01-07T01:44:08;97214.66;;;-0.64
77412;BMP280;66484;49.968;19.140;2024-01-07T01:46:08;97222.16;;;-0.63
77412;BMP280;66484;49.968;19.140;2024-01-07T01:48:09;97221.41;;;-0.63
77412;BMP280;66484;49.968;19.140;2024-01-07T01:50:10;97219.97;;;-0.68
77412;BMP280;66484;49.968;19.140;2024-01-07T01:52:13;97224.69;;;-0.79
77412;BMP280;66484;49.968;19.140;2024-01-07T01:54:14;97218.84;;;-0.90
77412;BMP280;66484;49.968;19.140;2024-01-07T01:56:16;97218.41;;;-0.85
77412;BMP280;66484;49.968;19.140;2024-01-07T01:58:18;97224.00;;;-0.83
77412;BMP280;66484;49.968;19.140;2024-01-07T02:00:19;97225.28;;;-0.91
77412;BMP280;66484;49.968;19.140;2024-01-07T02:02:20;97212.50;;;-0.92
77412;BMP280;66484;49.968;19.140;2024-01-07T02:04:20;97224.59;;;-0.95
77412;BMP280;66484;49.968;19.140;2024-01-07T02:06:21;97212.00;;;-1.07
77412;BMP280;66484;49.968;19.140;2024-01-07T02:08:22;97224.94;;;-0.93
77412;BMP280;66484;49.968;19.140;2024-01-07T02:10:23;97229.94;;;-0.79
77412;BMP280;66484;49.968;19.140;2024-01-07T02:12:24;97218.16;;;-0.94
77412;BMP280;66484;49.968;19.140;2024-01-07T02:14:24;97228.81;;;-1.01
77412;BMP280;66484;49.968;19.140;2024-01-07T02:16:25;97227.09;;;-1.10
77412;BMP280;66484;49.968;19.140;2024-01-07T02:18:25;97226.28;;;-1.08
77412;BMP280;66484;49.968;19.140;2024-01-07T02:20:26;97231.22;;;-1.09
77412;BMP280;66484;49.968;19.140;2024-01-07T02:22:26;97227.47;;;-1.08
77412;BMP280;66484;49.968;19.140;2024-01-07T02:24:27;97229.84;;;-1.17
77412;BMP280;66484;49.968;19.140;2024-01-07T02:26:27;97225.91;;;-1.06
77412;BMP280;66484;49.968;19.140;2024-01-07T02:28:29;97236.38;;;-1.03
77412;BMP280;66484;49.968;19.140;2024-01-07T02:30:30;97223.59;;;-1.27
77412;BMP280;66484;49.968;19.140;2024-01-07T02:32:30;97231.22;;;-1.09
77412;BMP280;66484;49.968;19.140;2024-01-07T02:34:36;97230.31;;;-1.00
77412;BMP280;66484;49.968;19.140;2024-01-07T02:36:36;97224.25;;;-0.97
77412;BMP280;66484;49.968;19.140;2024-01-07T02:38:37;97232.78;;;-0.89
77412;BMP280;66484;49.968;19.140;2024-01-07T02:40:37;97226.31;;;-0.85
77412;BMP280;66484;49.968;19.140;2024-01-07T02:42:38;97233.38;;;-1.05
77412;BMP280;66484;49.968;19.140;2024-01-07T02:44:38;97224.47;;;-1.10
77412;BMP280;66484;49.968;19.140;2024-01-07T02:46:39;97231.28;;;-1.13
77412;BMP280;66484;49.968;19.140;2024-01-07T02:48:40;97232.66;;;-1.28
77412;BMP280;66484;49.968;19.140;2024-01-07T02:50:40;97232.47;;;-1.40
77412;BMP280;66484;49.968;19.140;2024-01-07T02:56:41;97239.25;;;-1.43
77412;BMP280;66484;49.968;19.140;2024-01-07T02:58:42;97236.03;;;-1.54
77412;BMP280;66484;49.968;19.140;2024-01-07T03:00:42;97235.25;;;-1.77
77412;BMP280;66484;49.968;19.140;2024-01-07T03:02:43;97243.53;;;-1.78
77412;BMP280;66484;49.968;19.140;2024-01-07T03:04:43;97247.34;;;-1.83
77412;BMP280;66484;49.968;19.140;2024-01-07T03:06:44;97241.09;;;-1.96
77412;BMP280;66484;49.968;19.140;2024-01-07T03:08:44;97251.19;;;-1.91
77412;BMP280;66484;49.968;19.140;2024-01-07T03:10:45;97245.66;;;-1.70
77412;BMP280;66484;49.968;19.140;2024-01-07T03:12:45;97236.56;;;-1.65
77412;BMP280;66484;49.968;19.140;2024-01-07T03:14:46;97238.66;;;-1.80
77412;BMP280;66484;49.968;19.140;2024-01-07T03:16:46;97243.34;;;-1.68
77412;BMP280;66484;49.968;19.140;2024-01-07T03:18:47;97241.91;;;-1.69
77412;BMP280;66484;49.968;19.140;2024-01-07T03:20:47;97238.09;;;-1.68
77412;BMP280;66484;49.968;19.140;2024-01-07T03:22:48;97239.97;;;-1.65
77412;BMP280;66484;49.968;19.140;2024-01-07T03:24:48;97244.75;;;-1.60
77412;BMP280;66484;49.968;19.140;2024-01-07T03:26:49;97241.38;;;-1.34
77412;BMP280;66484;49.968;19.140;2024-01-07T03:28:50;97240.19;;;-1.56
77412;BMP280;66484;49.968;19.140;2024-01-07T03:30:50;97245.06;;;-1.55
77412;BMP280;66484;49.968;19.140;2024-01-07T03:32:51;97247.59;;;-1.74
77412;BMP280;66484;49.968;19.140;2024-01-07T03:34:52;97251.97;;;-1.94
77412;BMP280;66484;49.968;19.140;2024-01-07T03:36:54;97251.00;;;-2.07
77412;BMP280;66484;49.968;19.140;2024-01-07T03:38:54;97244.44;;;-1.92
77412;BMP280;66484;49.968;19.140;2024-01-07T03:40:55;97247.97;;;-1.75
77412;BMP280;66484;49.968;19.140;2024-01-07T03:42:55;97245.03;;;-1.81
77412;BMP280;66484;49.968;19.140;2024-01-07T03:44:56;97253.84;;;-1.94
77412;BMP280;66484;49.968;19.140;2024-01-07T03:46:56;97252.84;;;-2.04
77412;BMP280;66484;49.968;19.140;2024-01-07T03:48:57;97260.03;;;-2.08
77412;BMP280;66484;49.968;19.140;2024-01-07T03:50:57;97253.53;;;-2.00
77412;BMP280;66484;49.968;19.140;2024-01-07T03:52:57;97250.81;;;-1.93
77412;BMP280;66484;49.968;19.140;2024-01-07T03:54:58;97254.50;;;-2.16
77412;BMP280;66484;49.968;19.140;2024-01-07T03:56:59;97257.53;;;-2.21
77412;BMP280;66484;49.968;19.140;2024-01-07T03:58:59;97248.22;;;-2.26
77412;BMP280;66484;49.968;19.140;2024-01-07T04:01:00;97256.88;;;-2.25
77412;BMP280;66484;49.968;19.140;2024-01-07T04:03:01;97262.06;;;-2.22
77412;BMP280;66484;49.968;19.140;2024-01-07T04:05:02;97264.13;;;-2.07
77412;BMP280;66484;49.968;19.140;2024-01-07T04:07:02;97259.50;;;-1.96
77412;BMP280;66484;49.968;19.140;2024-01-07T04:09:03;97269.81;;;-1.82
77412;BMP280;66484;49.968;19.140;2024-01-07T04:11:04;97273.84;;;-2.04
77412;BMP280;66484;49.968;19.140;2024-01-07T04:13:04;97264.03;;;-2.00
77412;BMP280;66484;49.968;19.140;2024-01-07T04:15:05;97264.44;;;-2.01
77412;BMP280;66484;49.968;19.140;2024-01-07T04:17:06;97268.16;;;-1.99
77412;BMP280;66484;49.968;19.140;2024-01-07T04:19:08;97278.34;;;-2.01
77412;BMP280;66484;49.968;19.140;2024-01-07T04:21:09;97274.22;;;-2.02
77412;BMP280;66484;49.968;19.140;2024-01-07T04:23:10;97275.44;;;-2.10
77412;BMP280;66484;49.968;19.140;2024-01-07T04:25:10;97275.75;;;-2.37
77412;BMP280;66484;49.968;19.140;2024-01-07T04:27:11;97285.84;;;-2.36
77412;BMP280;66484;49.968;19.140;2024-01-07T04:29:11;97275.81;;;-2.44
77412;BMP280;66484;49.968;19.140;2024-01-07T04:31:12;97282.41;;;-2.29
77412;BMP280;66484;49.968;19.140;2024-01-07T04:33:12;97287.66;;;-2.29
77412;BMP280;66484;49.968;19.140;2024-01-07T04:35:13;97287.50;;;-2.49
77412;BMP280;66484;49.968;19.140;2024-01-07T04:37:13;97285.94;;;-2.46
77412;BMP280;66484;49.968;19.140;2024-01-07T04:39:14;97286.25;;;-2.37
77412;BMP280;66484;49.968;19.140;2024-01-07T04:41:14;97290.69;;;-2.34
77412;BMP280;66484;49.968;19.140;2024-01-07T04:43:15;97285.44;;;-2.31
77412;BMP280;66484;49.968;19.140;2024-01-07T04:45:15;97289.06;;;-2.21
77412;BMP280;66484;49.968;19.140;2024-01-07T04:47:29;97293.06;;;-2.43
77412;BMP280;66484;49.968;19.140;2024-01-07T04:49:30;97295.16;;;-2.31
77412;BMP280;66484;49.968;19.140;2024-01-07T04:51:34;97291.00;;;-2.25
77412;BMP280;66484;49.968;19.140;2024-01-07T04:53:35;97298.41;;;-2.17
77412;BMP280;66484;49.968;19.140;2024-01-07T04:55:36;97303.50;;;-2.36
77412;BMP280;66484;49.968;19.140;2024-01-07T04:57:37;97303.56;;;-2.43
77412;BMP280;66484;49.968;19.140;2024-01-07T04:59:37;97301.81;;;-2.60
77412;BMP280;66484;49.968;19.140;2024-01-07T05:01:38;97302.91;;;-2.54
77412;BMP280;66484;49.968;19.140;2024-01-07T05:03:39;97315.31;;;-2.58
77412;BMP280;66484;49.968;19.140;2024-01-07T05:05:40;97309.59;;;-2.50
77412;BMP280;66484;49.968;19.140;2024-01-07T05:07:40;97316.50;;;-2.63
77412;BMP280;66484;49.968;19.140;2024-01-07T05:09:41;97307.47;;;-2.62
77412;BMP280;66484;49.968;19.140;2024-01-07T05:11:41;97318.06;;;-2.72
77412;BMP280;66484;49.968;19.140;2024-01-07T05:13:42;97316.69;;;-2.87
77412;BMP280;66484;49.968;19.140;2024-01-07T05:15:42;97316.63;;;-2.80
77412;BMP280;66484;49.968;19.140;2024-01-07T05:17:43;97320.75;;;-2.79
77412;BMP280;66484;49.968;19.140;2024-01-07T05:19:43;97325.16;;;-2.69
77412;BMP280;66484;49.968;19.140;2024-01-07T05:21:44;97317.22;;;-2.62
77412;BMP280;66484;49.968;19.140;2024-01-07T05:23:44;97324.41;;;-2.69
77412;BMP280;66484;49.968;19.140;2024-01-07T05:25:45;97321.09;;;-2.77
77412;BMP280;66484;49.968;19.140;2024-01-07T05:27:46;97322.09;;;-2.64
77412;BMP280;66484;49.968;19.140;2024-01-07T05:29:46;97325.56;;;-2.74
77412;BMP280;66484;49.968;19.140;2024-01-07T05:31:50;97333.91;;;-2.86
77412;BMP280;66484;49.968;19.140;2024-01-07T05:33:50;97329.38;;;-2.82
77412;BMP280;66484;49.968;19.140;2024-01-07T05:35:51;97327.91;;;-2.86
77412;BMP280;66484;49.968;19.140;2024-01-07T05:37:51;97334.31;;;-2.91
77412;BMP280;66484;49.968;19.140;2024-01-07T05:39:52;97334.72;;;-2.92
77412;BMP280;66484;49.968;19.140;2024-01-07T05:41:52;97345.16;;;-2.89
77412;BMP280;66484;49.968;19.140;2024-01-07T05:43:53;97336.84;;;-2.77
77412;BMP280;66484;49.968;19.140;2024-01-07T05:45:53;97338.94;;;-2.62
77412;BMP280;66484;49.968;19.140;2024-01-07T05:47:54;97346.47;;;-2.64
77412;BMP280;66484;49.968;19.140;2024-01-07T05:49:54;97340.91;;;-2.69
77412;BMP280;66484;49.968;19.140;2024-01-07T05:51:55;97345.78;;;-2.71
77412;BMP280;66484;49.968;19.140;2024-01-07T05:53:55;97341.41;;;-2.84
77412;BMP280;66484;49.968;19.140;2024-01-07T05:55:56;97347.38;;;-2.80
77412;BMP280;66484;49.968;19.140;2024-01-07T05:57:56;97352.34;;;-2.93
77412;BMP280;66484;49.968;19.140;2024-01-07T05:59:57;97345.94;;;-2.88
77412;BMP280;66484;49.968;19.140;2024-01-07T06:01:58;97350.31;;;-2.75
77412;BMP280;66484;49.968;19.140;2024-01-07T06:03:59;97355.63;;;-2.85
77412;BMP280;66484;49.968;19.140;2024-01-07T06:06:00;97354.22;;;-2.97
77412;BMP280;66484;49.968;19.140;2024-01-07T06:08:00;97353.75;;;-2.85
77412;BMP280;66484;49.968;19.140;2024-01-07T06:10:01;97352.72;;;-2.98
77412;BMP280;66484;49.968;19.140;2024-01-07T06:12:01;97358.00;;;-3.01
77412;BMP280;66484;49.968;19.140;2024-01-07T06:14:02;97364.69;;;-2.90
77412;BMP280;66484;49.968;19.140;2024-01-07T06:16:02;97359.44;;;-2.93
77412;BMP280;66484;49.968;19.140;2024-01-07T06:18:03;97368.75;;;-2.89
77412;BMP280;66484;49.968;19.140;2024-01-07T06:20:04;97373.16;;;-2.72
77412;BMP280;66484;49.968;19.140;2024-01-07T06:22:06;97369.75;;;-2.69
77412;BMP280;66484;49.968;19.140;2024-01-07T06:24:09;97372.03;;;-2.74
77412;BMP280;66484;49.968;19.140;2024-01-07T06:26:10;97372.03;;;-2.74
77412;BMP280;66484;49.968;19.140;2024-01-07T06:28:10;97374.63;;;-2.71
77412;BMP280;66484;49.968;19.140;2024-01-07T06:30:11;97371.22;;;-2.65
77412;BMP280;66484;49.968;19.140;2024-01-07T06:32:13;97384.06;;;-2.77
77412;BMP280;66484;49.968;19.140;2024-01-07T06:34:14;97387.34;;;-2.69
77412;BMP280;66484;49.968;19.140;2024-01-07T06:36:15;97386.94;;;-2.61
77412;BMP280;66484;49.968;19.140;2024-01-07T06:38:15;97385.06;;;-2.64
77412;BMP280;66484;49.968;19.140;2024-01-07T06:40:16;97390.41;;;-2.78
77412;BMP280;66484;49.968;19.140;2024-01-07T06:42:17;97389.13;;;-2.56
77412;BMP280;66484;49.968;19.140;2024-01-07T06:44:17;97395.94;;;-2.66
77412;BMP280;66484;49.968;19.140;2024-01-07T06:46:18;97392.94;;;-2.64
77412;BMP280;66484;49.968;19.140;2024-01-07T06:48:18;97395.50;;;-2.57
77412;BMP280;66484;49.968;19.140;2024-01-07T06:50:19;97382.69;;;-2.95
77412;BMP280;66484;49.968;19.140;2024-01-07T06:52:20;97393.91;;;-2.95
77412;BMP280;66484;49.968;19.140;2024-01-07T06:54:21;97395.66;;;-2.78
77412;BMP280;66484;49.968;19.140;2024-01-07T06:56:22;97393.72;;;-2.67
77412;BMP280;66484;49.968;19.140;2024-01-07T06:58:22;97396.22;;;-2.53
77412;BMP280;66484;49.968;19.140;2024-01-07T07:00:23;97402.38;;;-2.70
77412;BMP280;66484;49.968;19.140;2024-01-07T07:02:23;97407.38;;;-2.86
77412;BMP280;66484;49.968;19.140;2024-01-07T07:04:24;97408.16;;;-2.92
77412;BMP280;66484;49.968;19.140;2024-01-07T07:06:24;97413.44;;;-3.03
77412;BMP280;66484;49.968;19.140;2024-01-07T07:08:25;97419.84;;;-3.07
77412;BMP280;66484;49.968;19.140;2024-01-07T07:10:25;97419.78;;;-2.97
77412;BMP280;66484;49.968;19.140;2024-01-07T07:12:26;97420.88;;;-2.94
77412;BMP280;66484;49.968;19.140;2024-01-07T07:14:26;97429.91;;;-2.99
77412;BMP280;66484;49.968;19.140;2024-01-07T07:16:27;97426.16;;;-2.98
77412;BMP280;66484;49.968;19.140;2024-01-07T07:18:27;97427.56;;;-2.83
77412;BMP280;66484;49.968;19.140;2024-01-07T07:20:28;97416.22;;;-2.66
77412;BMP280;66484;49.968;19.140;2024-01-07T07:22:28;97420.06;;;-2.81
77412;BMP280;66484;49.968;19.140;2024-01-07T07:24:29;97435.47;;;-2.90
77412;BMP280;66484;49.968;19.140;2024-01-07T07:26:29;97419.28;;;-2.78
77412;BMP280;66484;49.968;19.140;2024-01-07T07:28:30;97423.84;;;-2.85
77412;BMP280;66484;49.968;19.140;2024-01-07T07:30:31;97436.66;;;-2.98
77412;BMP280;66484;49.968;19.140;2024-01-07T07:32:31;97436.31;;;-3.07
77412;BMP280;66484;49.968;19.140;2024-01-07T07:34:32;97436.63;;;-2.94
77412;BMP280;66484;49.968;19.140;2024-01-07T07:36:33;97432.91;;;-3.00
77412;BMP280;66484;49.968;19.140;2024-01-07T07:38:33;97447.97;;;-3.15
77412;BMP280;66484;49.968;19.140;2024-01-07T07:40:34;97438.63;;;-3.16
77412;BMP280;66484;49.968;19.140;2024-01-07T07:42:34;97440.09;;;-3.11
77412;BMP280;66484;49.968;19.140;2024-01-07T07:44:35;97446.88;;;-3.17
77412;BMP280;66484;49.968;19.140;2024-01-07T07:46:35;97451.38;;;-3.21
77412;BMP280;66484;49.968;19.140;2024-01-07T07:48:36;97446.44;;;-3.05
77412;BMP280;66484;49.968;19.140;2024-01-07T07:50:36;97447.53;;;-2.99
77412;BMP280;66484;49.968;19.140;2024-01-07T07:52:37;97452.38;;;-2.98
77412;BMP280;66484;49.968;19.140;2024-01-07T07:54:37;97456.47;;;-2.93
77412;BMP280;66484;49.968;19.140;2024-01-07T07:56:38;97452.31;;;-2.84
77412;BMP280;66484;49.968;19.140;2024-01-07T07:58:38;97451.53;;;-2.81
77412;BMP280;66484;49.968;19.140;2024-01-07T08:00:39;97450.09;;;-2.92
77412;BMP280;66484;49.968;19.140;2024-01-07T08:02:40;97453.03;;;-2.80
77412;BMP280;66484;49.968;19.140;2024-01-07T08:04:40;97452.94;;;-2.69
77412;BMP280;66484;49.968;19.140;2024-01-07T08:06:42;97456.03;;;-2.81
77412;BMP280;66484;49.968;19.140;2024-01-07T08:08:42;97457.59;;;-2.91
77412;BMP280;66484;49.968;19.140;2024-01-07T08:10:43;97466.53;;;-2.85
77412;BMP280;66484;49.968;19.140;2024-01-07T08:12:43;97458.13;;;-2.59
77412;BMP280;66484;49.968;19.140;2024-01-07T08:14:44;97470.34;;;-2.93
77412;BMP280;66484;49.968;19.140;2024-01-07T08:16:44;97467.00;;;-2.97
77412;BMP280;66484;49.968;19.140;2024-01-07T08:18:45;97471.19;;;-3.13
77412;BMP280;66484;49.968;19.140;2024-01-07T08:20:46;97472.66;;;-3.12
77412;BMP280;66484;49.968;19.140;2024-01-07T08:22:47;97479.75;;;-3.06
77412;BMP280;66484;49.968;19.140;2024-01-07T08:24:47;97477.16;;;-3.13
77412;BMP280;66484;49.968;19.140;2024-01-07T08:26:48;97484.31;;;-3.13
77412;BMP280;66484;49.968;19.140;2024-01-07T08:28:48;97478.59;;;-3.01
77412;BMP280;66484;49.968;19.140;2024-01-07T08:30:49;97486.84;;;-2.99
77412;BMP280;66484;49.968;19.140;2024-01-07T08:32:51;97478.91;;;-2.89
77412;BMP280;66484;49.968;19.140;2024-01-07T08:34:52;97479.38;;;-3.04
77412;BMP280;66484;49.968;19.140;2024-01-07T08:36:52;97484.66;;;-3.08
77412;BMP280;66484;49.968;19.140;2024-01-07T08:38:54;97480.88;;;-3.07
77412;BMP280;66484;49.968;19.140;2024-01-07T08:40:54;97490.59;;;-2.97
77412;BMP280;66484;49.968;19.140;2024-01-07T08:42:55;97488.25;;;-2.81
77412;BMP280;66484;49.968;19.140;2024-01-07T08:44:56;97494.31;;;-2.94
77412;BMP280;66484;49.968;19.140;2024-01-07T08:46:56;97494.91;;;-2.69
77412;BMP280;66484;49.968;19.140;2024-01-07T08:48:57;97497.50;;;-2.59
77412;BMP280;66484;49.968;19.140;2024-01-07T08:50:58;97493.38;;;-2.60
77412;BMP280;66484;49.968;19.140;2024-01-07T08:52:58;97490.25;;;-2.38
77412;BMP280;66484;49.968;19.140;2024-01-07T08:54:59;97502.66;;;-2.45
77412;BMP280;66484;49.968;19.140;2024-01-07T08:56:59;97491.44;;;-2.49
77412;BMP280;66484;49.968;19.140;2024-01-07T08:59:00;97500.84;;;-2.55
77412;BMP280;66484;49.968;19.140;2024-01-07T09:01:01;97504.25;;;-2.62
77412;BMP280;66484;49.968;19.140;2024-01-07T09:03:01;97494.75;;;-2.42
77412;BMP280;66484;49.968;19.140;2024-01-07T09:05:02;97508.31;;;-2.50
77412;BMP280;66484;49.968;19.140;2024-01-07T09:07:03;97505.78;;;-2.10
77412;BMP280;66484;49.968;19.140;2024-01-07T09:09:04;97504.56;;;-1.99
77412;BMP280;66484;49.968;19.140;2024-01-07T09:11:08;97505.00;;;-1.67
77412;BMP280;66484;49.968;19.140;2024-01-07T09:13:11;97489.31;;;-2.17
77412;BMP280;66484;49.968;19.140;2024-01-07T09:15:12;97496.00;;;-2.10
77412;BMP280;66484;49.968;19.140;2024-01-07T09:17:12;97499.31;;;-2.02
77412;BMP280;66484;49.968;19.140;2024-01-07T09:19:13;97502.50;;;-2.21
77412;BMP280;66484;49.968;19.140;2024-01-07T09:21:14;97500.47;;;-2.07
77412;BMP280;66484;49.968;19.140;2024-01-07T09:23:15;97505.16;;;-2.28
77412;BMP280;66484;49.968;19.140;2024-01-07T09:25:16;97506.31;;;-2.32
77412;BMP280;66484;49.968;19.140;2024-01-07T09:27:16;97498.84;;;-2.37
77412;BMP280;66484;49.968;19.140;2024-01-07T09:29:17;97503.06;;;-2.00
77412;BMP280;66484;49.968;19.140;2024-01-07T09:31:18;97499.75;;;-2.11
77412;BMP280;66484;49.968;19.140;2024-01-07T09:33:19;97503.59;;;-2.18
77412;BMP280;66484;49.968;19.140;2024-01-07T09:35:20;97500.44;;;-2.00
77412;BMP280;66484;49.968;19.140;2024-01-07T09:37:20;97503.22;;;-2.20
77412;BMP280;66484;49.968;19.140;2024-01-07T09:39:21;97501.81;;;-2.32
77412;BMP280;66484;49.968;19.140;2024-01-07T09:41:22;97506.56;;;-2.16
77412;BMP280;66484;49.968;19.140;2024-01-07T09:43:22;97516.91;;;-2.46
77412;BMP280;66484;49.968;19.140;2024-01-07T09:45:23;97509.09;;;-2.57
77412;BMP280;66484;49.968;19.140;2024-01-07T09:47:24;97512.88;;;-2.61
77412;BMP280;66484;49.968;19.140;2024-01-07T09:49:24;97519.22;;;-2.59
77412;BMP280;66484;49.968;19.140;2024-01-07T20:24:53;97965.41;;;-5.62
77412;BMP280;66484;49.968;19.140;2024-01-07T20:26:53;97968.84;;;-5.55
77412;BMP280;66484;49.968;19.140;2024-01-07T20:28:55;97964.16;;;-5.72
77412;BMP280;66484;49.968;19.140;2024-01-07T20:30:56;97971.72;;;-5.63
77412;BMP280;66484;49.968;19.140;2024-01-07T20:32:57;97979.19;;;-5.62
77412;BMP280;66484;49.968;19.140;2024-01-07T20:34:57;97980.94;;;-5.69
77412;BMP280;66484;49.968;19.140;2024-01-07T20:36:58;97979.19;;;-5.62
77412;BMP280;66484;49.968;19.140;2024-01-07T20:38:59;97979.94;;;-5.61
77412;BMP280;66484;49.968;19.140;2024-01-07T20:41:01;97977.69;;;-5.63
77412;BMP280;66484;49.968;19.140;2024-01-07T20:43:02;97993.84;;;-5.83
77412;BMP280;66484;49.968;19.140;2024-01-07T20:45:07;97979.84;;;-5.68
77412;BMP280;66484;49.968;19.140;2024-01-07T20:47:08;97981.28;;;-5.71
77412;BMP280;66484;49.968;19.140;2024-01-07T20:49:08;97984.34;;;-5.65
77412;BMP280;66484;49.968;19.140;2024-01-07T20:51:12;97991.72;;;-5.45
77412;BMP280;66484;49.968;19.140;2024-01-07T20:53:12;97993.06;;;-5.54
77412;BMP280;66484;49.968;19.140;2024-01-07T20:55:13;97995.56;;;-5.35
77412;BMP280;66484;49.968;19.140;2024-01-07T20:57:14;97999.00;;;-5.57
77412;BMP280;66484;49.968;19.140;2024-01-07T20:59:14;97999.53;;;-5.45
77412;BMP280;66484;49.968;19.140;2024-01-07T21:01:15;97996.41;;;-5.57
77412;BMP280;66484;49.968;19.140;2024-01-07T21:03:16;98003.69;;;-5.40
77412;BMP280;66484;49.968;19.140;2024-01-07T21:05:17;98011.31;;;-5.58
77412;BMP280;66484;49.968;19.140;2024-01-07T21:07:20;98000.56;;;-5.53
77412;BMP280;66484;49.968;19.140;2024-01-07T21:09:21;98002.41;;;-5.53
77412;BMP280;66484;49.968;19.140;2024-01-07T21:11:24;98007.47;;;-5.67
77412;BMP280;66484;49.968;19.140;2024-01-07T21:13:25;98004.72;;;-5.78
77412;BMP280;66484;49.968;19.140;2024-01-07T21:15:26;98008.00;;;-5.84
77412;BMP280;66484;49.968;19.140;2024-01-07T21:17:26;98013.91;;;-5.87
77412;BMP280;66484;49.968;19.140;2024-01-07T21:19:27;98015.22;;;-6.00
77412;BMP280;66484;49.968;19.140;2024-01-07T21:21:27;98006.19;;;-6.06
77412;BMP280;66484;49.968;19.140;2024-01-07T21:23:28;98005.13;;;-6.01
77412;BMP280;66484;49.968;19.140;2024-01-07T21:25:29;98011.50;;;-5.99
77412;BMP280;66484;49.968;19.140;2024-01-07T21:27:29;98015.03;;;-5.88
77412;BMP280;66484;49.968;19.140;2024-01-07T21:29:30;98011.63;;;-5.92
77412;BMP280;66484;49.968;19.140;2024-01-07T21:31:33;98016.84;;;-5.92
77412;BMP280;66484;49.968;19.140;2024-01-07T21:33:34;98013.63;;;-5.82
77412;BMP280;66484;49.968;19.140;2024-01-07T21:35:34;98012.22;;;-6.02
77412;BMP280;66484;49.968;19.140;2024-01-07T21:37:35;98005.59;;;-5.96
77412;BMP280;66484;49.968;19.140;2024-01-07T21:39:36;98015.22;;;-6.00
77412;BMP280;66484;49.968;19.140;2024-01-07T21:41:43;98017.47;;;-5.98
77412;BMP280;66484;49.968;19.140;2024-01-07T21:43:44;98014.22;;;-5.92
77412;BMP280;66484;49.968;19.140;2024-01-07T21:45:45;98020.97;;;-5.91
77412;BMP280;66484;49.968;19.140;2024-01-07T21:47:45;98022.16;;;-5.85
77412;BMP280;66484;49.968;19.140;2024-01-07T21:49:46;98019.28;;;-5.77
77412;BMP280;66484;49.968;19.140;2024-01-07T21:51:47;98019.84;;;-5.90
77412;BMP280;66484;49.968;19.140;2024-01-07T21:53:48;98018.63;;;-5.96
77412;BMP280;66484;49.968;19.140;2024-01-07T21:55:48;98023.84;;;-5.96
77412;BMP280;66484;49.968;19.140;2024-01-07T21:57:49;98028.78;;;-5.91
77412;BMP280;66484;49.968;19.140;2024-01-07T21:59:50;98038.00;;;-5.97
77412;BMP280;66484;49.968;19.140;2024-01-07T22:01:50;98020.44;;;-6.00
77412;BMP280;66484;49.968;19.140;2024-01-07T22:03:51;98030.84;;;-6.03